sensor_id;sensor_type;location;lat;lon;timestamp;pressure;altitude;pressure_sealevel;temperature;humidity
23303;BME280;11820;48.738;9.092;2023-02-17T00:00:30;97119.47;;;10.05;nan
23303;BME280;11820;48.738;9.092;2023-02-17T00:02:56;97121.06;;;10.06;nan
23303;BME280;11820;48.738;9.092;2023-02-17T00:05:22;97122.03;;;10.05;nan
23303;BME280;11820;48.738;9.092;2023-02-17T00:07:47;97122.69;;;10.07;nan
23303;BME280;11820;48.738;9.092;2023-02-17T00:10:13;97117.69;;;10.06;nan
23303;BME280;11820;48.738;9.092;2023-02-17T00:12:38;97114.28;;;10.05;nan
23303;BME280;11820;48.738;9.092;2023-02-17T00:15:04;97129.19;;;9.95;nan
23303;BME280;11820;48.738;9.092;2023-02-17T00:17:29;97127.28;;;9.89;nan
23303;BME280;11820;48.738;9.092;2023-02-17T00:19:54;97126.25;;;9.98;nan
23303;BME280;11820;48.738;9.092;2023-02-17T00:22:20;97127.06;;;9.99;nan
23303;BME280;11820;48.738;9.092;2023-02-17T00:24:45;97112.38;;;9.99;nan
23303;BME280;11820;48.738;9.092;2023-02-17T00:27:11;97110.75;;;9.98;nan
23303;BME280;11820;48.738;9.092;2023-02-17T00:29:36;97107.53;;;9.96;nan
23303;BME280;11820;48.738;9.092;2023-02-17T00:32:02;97104.63;;;9.99;nan
23303;BME280;11820;48.738;9.092;2023-02-17T00:34:27;97097.81;;;10.06;nan
23303;BME280;11820;48.738;9.092;2023-02-17T00:36:52;97105.41;;;10.08;nan
23303;BME280;11820;48.738;9.092;2023-02-17T00:39:18;97102.34;;;10.12;nan
23303;BME280;11820;48.738;9.092;2023-02-17T00:41:43;97102.69;;;10.09;nan
23303;BME280;11820;48.738;9.092;2023-02-17T00:44:19;97097.50;;;10.09;nan
23303;BME280;11820;48.738;9.092;2023-02-17T00:46:45;97097.50;;;10.09;nan
23303;BME280;11820;48.738;9.092;2023-02-17T00:49:22;97102.34;;;10.12;nan
23303;BME280;11820;48.738;9.092;2023-02-17T00:51:48;97095.91;;;10.08;nan
23303;BME280;11820;48.738;9.092;2023-02-17T00:54:14;97104.56;;;10.15;nan
23303;BME280;11820;48.738;9.092;2023-02-17T00:56:40;97099.44;;;10.07;nan
23303;BME280;11820;48.738;9.092;2023-02-17T00:59:06;97101.38;;;10.05;nan
23303;BME280;11820;48.738;9.092;2023-02-17T01:01:31;97096.34;;;10.12;nan
23303;BME280;11820;48.738;9.092;2023-02-17T01:03:57;97107.94;;;10.16;nan
23303;BME280;11820;48.738;9.092;2023-02-17T01:06:25;97102.34;;;10.12;nan
23303;BME280;11820;48.738;9.092;2023-02-17T01:08:51;97101.50;;;10.12;nan
23303;BME280;11820;48.738;9.092;2023-02-17T01:11:24;97104.72;;;10.14;nan
23303;BME280;11820;48.738;9.092;2023-02-17T01:13:51;97094.25;;;10.07;nan
23303;BME280;11820;48.738;9.092;2023-02-17T01:16:19;97095.94;;;9.92;nan
23303;BME280;11820;48.738;9.092;2023-02-17T01:18:45;97089.44;;;10.04;nan
23303;BME280;11820;48.738;9.092;2023-02-17T01:21:22;97085.88;;;10.05;nan
23303;BME280;11820;48.738;9.092;2023-02-17T01:23:52;97080.22;;;10.10;nan
23303;BME280;11820;48.738;9.092;2023-02-17T01:26:19;97077.97;;;10.07;nan
23303;BME280;11820;48.738;9.092;2023-02-17T01:28:46;97074.88;;;10.11;nan
23303;BME280;11820;48.738;9.092;2023-02-17T01:31:12;97070.69;;;10.10;nan
23303;BME280;11820;48.738;9.092;2023-02-17T01:33:38;97071.34;;;10.04;nan
23303;BME280;11820;48.738;9.092;2023-02-17T01:36:09;97061.34;;;10.01;nan
23303;BME280;11820;48.738;9.092;2023-02-17T01:38:36;97071.84;;;10.00;nan
23303;BME280;11820;48.738;9.092;2023-02-17T01:41:02;97066.94;;;10.13;nan
23303;BME280;11820;48.738;9.092;2023-02-17T01:43:28;97070.50;;;10.12;nan
23303;BME280;11820;48.738;9.092;2023-02-17T01:45:55;97061.66;;;10.06;nan
23303;BME280;11820;48.738;9.092;2023-02-17T01:48:31;97059.59;;;10.02;nan
23303;BME280;11820;48.738;9.092;2023-02-17T01:53:27;97052.16;;;9.99;nan
23303;BME280;11820;48.738;9.092;2023-02-17T01:55:57;97044.88;;;10.02;nan
23303;BME280;11820;48.738;9.092;2023-02-17T01:58:23;97049.91;;;9.96;nan
23303;BME280;11820;48.738;9.092;2023-02-17T02:00:51;97059.09;;;9.98;nan
23303;BME280;11820;48.738;9.092;2023-02-17T02:03:18;97050.22;;;9.93;nan
23303;BME280;11820;48.738;9.092;2023-02-17T02:05:44;97055.25;;;9.94;nan
23303;BME280;11820;48.738;9.092;2023-02-17T02:08:11;97052.31;;;9.97;nan
23303;BME280;11820;48.738;9.092;2023-02-17T02:10:37;97051.69;;;9.95;nan
23303;BME280;11820;48.738;9.092;2023-02-17T02:13:03;97047.16;;;9.97;nan
23303;BME280;11820;48.738;9.092;2023-02-17T02:15:46;97046.81;;;10.00;nan
23303;BME280;11820;48.738;9.092;2023-02-17T02:27:05;97049.09;;;9.95;nan
23303;BME280;11820;48.738;9.092;2023-02-17T02:35:50;97040.72;;;9.93;nan
23303;BME280;11820;48.738;9.092;2023-02-17T02:38:24;97038.41;;;9.98;nan
23303;BME280;11820;48.738;9.092;2023-02-17T02:40:58;97040.69;;;10.01;nan
23303;BME280;11820;48.738;9.092;2023-02-17T02:43:28;97025.50;;;9.98;nan
23303;BME280;11820;48.738;9.092;2023-02-17T02:45:54;97035.81;;;10.06;nan
23303;BME280;11820;48.738;9.092;2023-02-17T02:48:19;97032.28;;;9.99;nan
23303;BME280;11820;48.738;9.092;2023-02-17T03:01:54;97017.94;;;9.97;nan
23303;BME280;11820;48.738;9.092;2023-02-17T03:04:29;97002.03;;;9.85;nan
23303;BME280;11820;48.738;9.092;2023-02-17T03:07:14;97008.56;;;9.96;nan
23303;BME280;11820;48.738;9.092;2023-02-17T03:09:50;97008.91;;;9.93;nan
23303;BME280;11820;48.738;9.092;2023-02-17T03:12:17;97003.41;;;9.96;nan
23303;BME280;11820;48.738;9.092;2023-02-17T03:14:42;97007.84;;;9.79;nan
23303;BME280;11820;48.738;9.092;2023-02-17T03:17:08;96995.53;;;9.89;nan
23303;BME280;11820;48.738;9.092;2023-02-17T03:19:34;96995.81;;;9.94;nan
23303;BME280;11820;48.738;9.092;2023-02-17T03:24:38;96990.31;;;9.97;nan
23303;BME280;11820;48.738;9.092;2023-02-17T03:27:03;96988.75;;;9.88;nan
23303;BME280;11820;48.738;9.092;2023-02-17T03:29:29;96989.41;;;9.90;nan
23303;BME280;11820;48.738;9.092;2023-02-17T03:31:54;96998.06;;;9.97;nan
23303;BME280;11820;48.738;9.092;2023-02-17T03:34:20;96993.28;;;9.86;nan
23303;BME280;11820;48.738;9.092;2023-02-17T03:36:45;97012.94;;;9.95;nan
23303;BME280;11820;48.738;9.092;2023-02-17T03:39:10;97008.09;;;9.92;nan
23303;BME280;11820;48.738;9.092;2023-02-17T03:41:36;97002.09;;;10.00;nan
23303;BME280;11820;48.738;9.092;2023-02-17T03:44:01;97001.94;;;10.01;nan
23303;BME280;11820;48.738;9.092;2023-02-17T03:46:26;97008.09;;;9.92;nan
23303;BME280;11820;48.738;9.092;2023-02-17T03:48:51;97013.16;;;9.86;nan
23303;BME280;11820;48.738;9.092;2023-02-17T03:51:21;97007.25;;;10.00;nan
23303;BME280;11820;48.738;9.092;2023-02-17T03:53:48;97014.06;;;9.93;nan
23303;BME280;11820;48.738;9.092;2023-02-17T03:56:14;97012.63;;;9.90;nan
23303;BME280;11820;48.738;9.092;2023-02-17T03:58:40;97008.38;;;9.97;nan
23303;BME280;11820;48.738;9.092;2023-02-17T04:01:07;97003.91;;;9.91;nan
23303;BME280;11820;48.738;9.092;2023-02-17T04:03:33;96998.56;;;9.93;nan
23303;BME280;11820;48.738;9.092;2023-02-17T04:05:58;97013.00;;;9.87;nan
23303;BME280;11820;48.738;9.092;2023-02-17T04:08:23;97010.75;;;9.84;nan
23303;BME280;11820;48.738;9.092;2023-02-17T04:10:53;97007.19;;;9.85;nan
23303;BME280;11820;48.738;9.092;2023-02-17T04:13:19;97006.00;;;9.96;nan
23303;BME280;11820;48.738;9.092;2023-02-17T04:15:44;97016.69;;;9.85;nan
23303;BME280;11820;48.738;9.092;2023-02-17T04:18:09;97020.19;;;9.92;nan
23303;BME280;11820;48.738;9.092;2023-02-17T04:20:35;97013.28;;;9.92;nan
23303;BME280;11820;48.738;9.092;2023-02-17T04:23:00;97015.72;;;9.86;nan
23303;BME280;11820;48.738;9.092;2023-02-17T04:25:25;97029.63;;;9.85;nan
23303;BME280;11820;48.738;9.092;2023-02-17T04:27:50;97029.91;;;9.90;nan
23303;BME280;11820;48.738;9.092;2023-02-17T04:30:16;97028.13;;;9.90;nan
23303;BME280;11820;48.738;9.092;2023-02-17T04:32:41;97023.06;;;9.74;nan
23303;BME280;11820;48.738;9.092;2023-02-17T04:35:07;97027.50;;;9.88;nan
23303;BME280;11820;48.738;9.092;2023-02-17T04:37:32;97018.09;;;9.95;nan
23303;BME280;11820;48.738;9.092;2023-02-17T04:39:57;97022.63;;;9.93;nan
23303;BME280;11820;48.738;9.092;2023-02-17T04:42:23;97013.28;;;9.92;nan
23303;BME280;11820;48.738;9.092;2023-02-17T04:44:48;97002.59;;;9.95;nan
23303;BME280;11820;48.738;9.092;2023-02-17T04:47:13;97005.16;;;10.03;nan
23303;BME280;11820;48.738;9.092;2023-02-17T04:49:39;97006.75;;;10.04;nan
23303;BME280;11820;48.738;9.092;2023-02-17T04:52:04;96995.44;;;10.05;nan
23303;BME280;11820;48.738;9.092;2023-02-17T04:54:29;96990.47;;;10.04;nan
23303;BME280;11820;48.738;9.092;2023-02-17T04:56:55;96988.84;;;10.03;nan
23303;BME280;11820;48.738;9.092;2023-02-17T04:59:20;96992.53;;;10.00;nan
23303;BME280;11820;48.738;9.092;2023-02-17T05:01:45;96986.28;;;9.95;nan
23303;BME280;11820;48.738;9.092;2023-02-17T05:04:10;96989.69;;;9.95;nan
23303;BME280;11820;48.738;9.092;2023-02-17T05:06:36;97002.25;;;9.98;nan
23303;BME280;11820;48.738;9.092;2023-02-17T05:09:01;96990.50;;;9.96;nan
23303;BME280;11820;48.738;9.092;2023-02-17T05:11:26;96987.91;;;9.96;nan
23303;BME280;11820;48.738;9.092;2023-02-17T05:13:52;96989.03;;;9.93;nan
23303;BME280;11820;48.738;9.092;2023-02-17T05:16:17;96985.84;;;9.91;nan
23303;BME280;11820;48.738;9.092;2023-02-17T05:18:43;96986.19;;;9.88;nan
23303;BME280;11820;48.738;9.092;2023-02-17T05:21:08;96996.78;;;9.93;nan
23303;BME280;11820;48.738;9.092;2023-02-17T05:23:34;96981.09;;;9.95;nan
23303;BME280;11820;48.738;9.092;2023-02-17T05:26:05;96985.50;;;9.94;nan
23303;BME280;11820;48.738;9.092;2023-02-17T05:28:31;96986.13;;;9.96;nan
23303;BME280;11820;48.738;9.092;2023-02-17T05:30:56;96984.78;;;10.00;nan
23303;BME280;11820;48.738;9.092;2023-02-17T05:33:21;96981.25;;;10.01;nan
23303;BME280;11820;48.738;9.092;2023-02-17T05:35:46;96983.19;;;9.99;nan
23303;BME280;11820;48.738;9.092;2023-02-17T05:38:12;96986.44;;;10.01;nan
23303;BME280;11820;48.738;9.092;2023-02-17T05:40:37;96983.97;;;10.08;nan
23303;BME280;11820;48.738;9.092;2023-02-17T05:43:02;96991.91;;;9.98;nan
23303;BME280;11820;48.738;9.092;2023-02-17T05:45:28;96985.75;;;10.07;nan
23303;BME280;11820;48.738;9.092;2023-02-17T05:47:53;96992.69;;;10.07;nan
23303;BME280;11820;48.738;9.092;2023-02-17T05:50:18;96994.19;;;10.01;nan
23303;BME280;11820;48.738;9.092;2023-02-17T05:52:44;97003.72;;;10.01;nan
23303;BME280;11820;48.738;9.092;2023-02-17T05:55:09;97015.44;;;10.11;nan
23303;BME280;11820;48.738;9.092;2023-02-17T05:57:34;97010.09;;;10.13;nan
23303;BME280;11820;48.738;9.092;2023-02-17T06:00:00;97014.63;;;10.11;nan
23303;BME280;11820;48.738;9.092;2023-02-17T06:02:25;97013.31;;;10.15;nan
23303;BME280;11820;48.738;9.092;2023-02-17T06:04:50;97017.69;;;10.14;nan
23303;BME280;11820;48.738;9.092;2023-02-17T06:07:16;97021.69;;;10.17;nan
23303;BME280;11820;48.738;9.092;2023-02-17T06:09:41;97024.59;;;10.22;nan
23303;BME280;11820;48.738;9.092;2023-02-17T06:12:06;97027.63;;;10.25;nan
23303;BME280;11820;48.738;9.092;2023-02-17T06:14:32;97030.06;;;10.19;nan
23303;BME280;11820;48.738;9.092;2023-02-17T06:16:57;97025.38;;;10.22;nan
23303;BME280;11820;48.738;9.092;2023-02-17T06:19:24;97028.59;;;10.24;nan
23303;BME280;11820;48.738;9.092;2023-02-17T06:21:49;97025.38;;;10.22;nan
23303;BME280;11820;48.738;9.092;2023-02-17T06:24:15;97025.09;;;10.17;nan
23303;BME280;11820;48.738;9.092;2023-02-17T06:26:40;97029.97;;;10.12;nan
23303;BME280;11820;48.738;9.092;2023-02-17T06:29:06;97030.75;;;10.13;nan
23303;BME280;11820;48.738;9.092;2023-02-17T06:31:32;97036.75;;;10.13;nan
23303;BME280;11820;48.738;9.092;2023-02-17T06:33:57;97048.69;;;10.14;nan
23303;BME280;11820;48.738;9.092;2023-02-17T06:36:22;97040.59;;;10.17;nan
23303;BME280;11820;48.738;9.092;2023-02-17T06:38:48;97054.00;;;10.21;nan
23303;BME280;11820;48.738;9.092;2023-02-17T06:41:13;97047.66;;;10.23;nan
23303;BME280;11820;48.738;9.092;2023-02-17T06:43:39;97047.03;;;10.21;nan
23303;BME280;11820;48.738;9.092;2023-02-17T06:46:04;97040.75;;;10.16;nan
23303;BME280;11820;48.738;9.092;2023-02-17T06:48:29;97031.88;;;10.18;nan
23303;BME280;11820;48.738;9.092;2023-02-17T06:50:58;97037.81;;;10.19;nan
23303;BME280;11820;48.738;9.092;2023-02-17T06:53:24;97039.63;;;10.18;nan
23303;BME280;11820;48.738;9.092;2023-02-17T06:55:49;97044.09;;;10.24;nan
23303;BME280;11820;48.738;9.092;2023-02-17T06:58:14;97046.53;;;10.26;nan
23303;BME280;11820;48.738;9.092;2023-02-17T07:00:40;97036.53;;;10.23;nan
23303;BME280;11820;48.738;9.092;2023-02-17T07:03:05;97047.66;;;10.23;nan
23303;BME280;11820;48.738;9.092;2023-02-17T07:05:34;97054.16;;;10.19;nan
23303;BME280;11820;48.738;9.092;2023-02-17T07:07:59;97056.72;;;10.19;nan
23303;BME280;11820;48.738;9.092;2023-02-17T07:10:24;97051.22;;;10.22;nan
23303;BME280;11820;48.738;9.092;2023-02-17T07:12:50;97060.41;;;10.25;nan
23303;BME280;11820;48.738;9.092;2023-02-17T07:15:15;97067.06;;;10.19;nan
23303;BME280;11820;48.738;9.092;2023-02-17T07:17:41;97068.34;;;10.23;nan
23303;BME280;11820;48.738;9.092;2023-02-17T07:20:08;97064.78;;;10.24;nan
23303;BME280;11820;48.738;9.092;2023-02-17T07:22:33;97059.53;;;10.32;nan
23303;BME280;11820;48.738;9.092;2023-02-17T07:24:59;97063.44;;;10.28;nan
23303;BME280;11820;48.738;9.092;2023-02-17T07:27:24;97071.69;;;10.32;nan
23303;BME280;11820;48.738;9.092;2023-02-17T07:29:49;97084.13;;;10.28;nan
23303;BME280;11820;48.738;9.092;2023-02-17T07:32:15;97080.28;;;10.24;nan
23303;BME280;11820;48.738;9.092;2023-02-17T07:34:40;97081.53;;;10.28;nan
23303;BME280;11820;48.738;9.092;2023-02-17T07:37:07;97077.56;;;10.18;nan
23303;BME280;11820;48.738;9.092;2023-02-17T07:39:32;97067.75;;;10.13;nan
23303;BME280;11820;48.738;9.092;2023-02-17T07:41:58;97067.34;;;10.24;nan
23303;BME280;11820;48.738;9.092;2023-02-17T07:44:27;97066.56;;;10.24;nan
23303;BME280;11820;48.738;9.092;2023-02-17T07:46:52;97066.50;;;10.32;nan
23303;BME280;11820;48.738;9.092;2023-02-17T07:49:18;97062.13;;;10.32;nan
23303;BME280;11820;48.738;9.092;2023-02-17T07:51:43;97082.16;;;10.30;nan
23303;BME280;11820;48.738;9.092;2023-02-17T07:54:08;97072.66;;;10.31;nan
23303;BME280;11820;48.738;9.092;2023-02-17T07:56:33;97075.06;;;10.32;nan
23303;BME280;11820;48.738;9.092;2023-02-17T07:58:59;97089.59;;;10.33;nan
23303;BME280;11820;48.738;9.092;2023-02-17T08:01:25;97089.94;;;10.30;nan
23303;BME280;11820;48.738;9.092;2023-02-17T08:03:52;97096.06;;;10.29;nan
23303;BME280;11820;48.738;9.092;2023-02-17T08:06:22;97103.16;;;10.35;nan
23303;BME280;11820;48.738;9.092;2023-02-17T08:08:48;97090.06;;;10.37;nan
23303;BME280;11820;48.738;9.092;2023-02-17T08:11:33;97105.41;;;10.38;nan
23303;BME280;11820;48.738;9.092;2023-02-17T08:14:19;97087.75;;;10.42;nan
23303;BME280;11820;48.738;9.092;2023-02-17T08:16:45;97085.84;;;10.58;nan
23303;BME280;11820;48.738;9.092;2023-02-17T08:19:10;97081.66;;;10.57;nan
23303;BME280;11820;48.738;9.092;2023-02-17T08:21:35;97088.56;;;10.65;nan
23303;BME280;11820;48.738;9.092;2023-02-17T08:24:01;97081.91;;;10.70;nan
23303;BME280;11820;48.738;9.092;2023-02-17T08:26:26;97076.75;;;10.85;nan
23303;BME280;11820;48.738;9.092;2023-02-17T08:28:51;97090.84;;;10.82;nan
23303;BME280;11820;48.738;9.092;2023-02-17T08:31:28;97078.59;;;10.76;nan
23303;BME280;11820;48.738;9.092;2023-02-17T08:33:54;97092.25;;;10.70;nan
23303;BME280;11820;48.738;9.092;2023-02-17T08:36:20;97109.09;;;10.66;nan
23303;BME280;11820;48.738;9.092;2023-02-17T08:38:49;97103.72;;;10.68;nan
23303;BME280;11820;48.738;9.092;2023-02-17T08:41:29;97102.34;;;10.57;nan
23303;BME280;11820;48.738;9.092;2023-02-17T08:43:57;97087.19;;;10.77;nan
23303;BME280;11820;48.738;9.092;2023-02-17T08:46:22;97084.69;;;10.83;nan
23303;BME280;11820;48.738;9.092;2023-02-17T08:48:48;97082.56;;;10.87;nan
23303;BME280;11820;48.738;9.092;2023-02-17T08:51:19;97092.03;;;10.94;nan
23303;BME280;11820;48.738;9.092;2023-02-17T08:53:51;97077.63;;;11.00;nan
23303;BME280;11820;48.738;9.092;2023-02-17T08:56:18;97101.06;;;10.98;nan
23303;BME280;11820;48.738;9.092;2023-02-17T08:58:44;97104.78;;;10.96;nan
23303;BME280;11820;48.738;9.092;2023-02-17T09:01:09;97089.81;;;10.91;nan
23303;BME280;11820;48.738;9.092;2023-02-17T09:03:36;97096.84;;;10.83;nan
23303;BME280;11820;48.738;9.092;2023-02-17T09:06:02;97086.16;;;10.63;nan
23303;BME280;11820;48.738;9.092;2023-02-17T09:08:28;97097.41;;;10.70;nan
23303;BME280;11820;48.738;9.092;2023-02-17T09:10:53;97082.38;;;10.74;nan
23303;BME280;11820;48.738;9.092;2023-02-17T09:13:19;97079.59;;;10.75;nan
23303;BME280;11820;48.738;9.092;2023-02-17T09:15:44;97072.47;;;10.77;nan
23303;BME280;11820;48.738;9.092;2023-02-17T09:18:10;97072.25;;;10.64;nan
23303;BME280;11820;48.738;9.092;2023-02-17T09:20:36;97077.25;;;10.66;nan
23303;BME280;11820;48.738;9.092;2023-02-17T09:23:02;97076.72;;;10.70;nan
23303;BME280;11820;48.738;9.092;2023-02-17T09:25:27;97068.09;;;10.78;nan
23303;BME280;11820;48.738;9.092;2023-02-17T09:27:53;97074.63;;;10.88;nan
23303;BME280;11820;48.738;9.092;2023-02-17T09:30:18;97074.75;;;10.72;nan
23303;BME280;11820;48.738;9.092;2023-02-17T09:32:43;97076.69;;;10.93;nan
23303;BME280;11820;48.738;9.092;2023-02-17T09:35:14;97078.13;;;10.95;nan
23303;BME280;11820;48.738;9.092;2023-02-17T09:37:39;97060.91;;;11.02;nan
23303;BME280;11820;48.738;9.092;2023-02-17T09:40:06;97067.34;;;11.06;nan
23303;BME280;11820;48.738;9.092;2023-02-17T09:42:36;97063.78;;;11.07;nan
23303;BME280;11820;48.738;9.092;2023-02-17T09:45:18;97045.13;;;11.26;nan
23303;BME280;11820;48.738;9.092;2023-02-17T09:47:47;97083.72;;;11.35;nan
23303;BME280;11820;48.738;9.092;2023-02-17T09:50:18;97106.56;;;11.32;nan
23303;BME280;11820;48.738;9.092;2023-02-17T09:52:54;97093.25;;;11.35;nan
23303;BME280;11820;48.738;9.092;2023-02-17T09:58:02;97102.06;;;11.63;nan
23303;BME280;11820;48.738;9.092;2023-02-17T10:00:38;97107.53;;;12.18;nan
23303;BME280;11820;48.738;9.092;2023-02-17T10:05:46;97125.13;;;12.58;nan
23303;BME280;11820;48.738;9.092;2023-02-17T10:08:18;97108.75;;;12.93;nan
23303;BME280;11820;48.738;9.092;2023-02-17T10:10:55;97116.53;;;12.93;nan
23303;BME280;11820;48.738;9.092;2023-02-17T10:13:26;97121.31;;;12.75;nan
23303;BME280;11820;48.738;9.092;2023-02-17T10:15:58;97126.97;;;12.43;nan
23303;BME280;11820;48.738;9.092;2023-02-17T10:18:36;97121.88;;;12.14;nan
23303;BME280;11820;48.738;9.092;2023-02-17T10:21:06;97117.75;;;12.05;nan
23303;BME280;11820;48.738;9.092;2023-02-17T10:23:35;97122.78;;;11.92;nan
23303;BME280;11820;48.738;9.092;2023-02-17T10:31:44;97122.56;;;12.08;nan
23303;BME280;11820;48.738;9.092;2023-02-17T10:34:36;97106.34;;;12.56;nan
23303;BME280;11820;48.738;9.092;2023-02-17T10:37:13;97124.53;;;12.77;nan
23303;BME280;11820;48.738;9.092;2023-02-17T10:39:49;97110.63;;;13.32;nan
23303;BME280;11820;48.738;9.092;2023-02-17T10:42:21;97097.47;;;14.81;nan
23303;BME280;11820;48.738;9.092;2023-02-17T10:44:51;97104.88;;;13.09;nan
23303;BME280;11820;48.738;9.092;2023-02-17T10:47:20;97102.16;;;13.17;nan
23303;BME280;11820;48.738;9.092;2023-02-17T10:49:49;97110.38;;;13.00;nan
23303;BME280;11820;48.738;9.092;2023-02-17T10:52:18;97117.50;;;12.92;nan
23303;BME280;11820;48.738;9.092;2023-02-17T10:57:13;97100.44;;;13.03;nan
23303;BME280;11820;48.738;9.092;2023-02-17T10:59:46;97105.50;;;12.91;nan
23303;BME280;11820;48.738;9.092;2023-02-17T11:02:33;97106.19;;;12.78;nan
23303;BME280;11820;48.738;9.092;2023-02-17T11:04:59;97102.47;;;12.66;nan
23303;BME280;11820;48.738;9.092;2023-02-17T11:07:36;97098.47;;;12.64;nan
23303;BME280;11820;48.738;9.092;2023-02-17T11:12:46;97088.13;;;13.12;nan
23303;BME280;11820;48.738;9.092;2023-02-17T11:15:17;97095.88;;;13.33;nan
23303;BME280;11820;48.738;9.092;2023-02-17T11:17:44;97075.22;;;14.46;nan
23303;BME280;11820;48.738;9.092;2023-02-17T11:22:45;97075.25;;;14.85;nan
23303;BME280;11820;48.738;9.092;2023-02-17T11:25:28;97066.03;;;14.89;nan
23303;BME280;11820;48.738;9.092;2023-02-17T11:27:59;97070.00;;;14.53;nan
23303;BME280;11820;48.738;9.092;2023-02-17T11:30:26;97084.00;;;14.45;nan
23303;BME280;11820;48.738;9.092;2023-02-17T11:32:52;97069.72;;;14.22;nan
23303;BME280;11820;48.738;9.092;2023-02-17T11:35:47;97082.34;;;13.84;nan
23303;BME280;11820;48.738;9.092;2023-02-17T11:40:50;97054.53;;;13.38;nan
23303;BME280;11820;48.738;9.092;2023-02-17T11:43:16;97057.56;;;13.41;nan
23303;BME280;11820;48.738;9.092;2023-02-17T11:45:53;97062.94;;;13.12;nan
23303;BME280;11820;48.738;9.092;2023-02-17T11:51:09;97051.25;;;12.96;nan
23303;BME280;11820;48.738;9.092;2023-02-17T11:56:32;97054.47;;;12.98;nan
23303;BME280;11820;48.738;9.092;2023-02-17T12:04:33;97079.88;;;12.88;nan
23303;BME280;11820;48.738;9.092;2023-02-17T12:15:50;97096.72;;;12.71;nan
23303;BME280;11820;48.738;9.092;2023-02-17T12:24:01;97086.53;;;12.69;nan
23303;BME280;11820;48.738;9.092;2023-02-17T12:29:11;97112.91;;;12.73;nan
23303;BME280;11820;48.738;9.092;2023-02-17T12:34:35;97090.31;;;12.67;nan
23303;BME280;11820;48.738;9.092;2023-02-17T12:37:05;97081.56;;;12.74;nan
23303;BME280;11820;48.738;9.092;2023-02-17T12:39:43;97084.59;;;12.78;nan
23303;BME280;11820;48.738;9.092;2023-02-17T12:44:55;97063.63;;;12.94;nan
23303;BME280;11820;48.738;9.092;2023-02-17T12:47:28;97065.31;;;13.07;nan
23303;BME280;11820;48.738;9.092;2023-02-17T12:50:02;97069.88;;;13.33;nan
23303;BME280;11820;48.738;9.092;2023-02-17T12:52:36;97062.75;;;13.14;nan
23303;BME280;11820;48.738;9.092;2023-02-17T12:55:21;97069.28;;;13.03;nan
23303;BME280;11820;48.738;9.092;2023-02-17T12:57:52;97057.34;;;13.09;nan
23303;BME280;11820;48.738;9.092;2023-02-17T13:00:38;97061.47;;;13.03;nan
23303;BME280;11820;48.738;9.092;2023-02-17T13:03:06;97061.88;;;13.00;nan
23303;BME280;11820;48.738;9.092;2023-02-17T13:08:07;97067.22;;;12.99;nan
23303;BME280;11820;48.738;9.092;2023-02-17T13:10:38;97063.28;;;13.03;nan
23303;BME280;11820;48.738;9.092;2023-02-17T13:13:26;97058.41;;;12.94;nan
23303;BME280;11820;48.738;9.092;2023-02-17T13:16:07;97062.63;;;12.95;nan
23303;BME280;11820;48.738;9.092;2023-02-17T13:18:38;97068.44;;;12.97;nan
23303;BME280;11820;48.738;9.092;2023-02-17T13:23:43;97063.25;;;12.97;nan
23303;BME280;11820;48.738;9.092;2023-02-17T13:26:22;97066.44;;;12.98;nan
23303;BME280;11820;48.738;9.092;2023-02-17T13:28:50;97076.00;;;12.98;nan
23303;BME280;11820;48.738;9.092;2023-02-17T13:31:21;97058.41;;;12.94;nan
23303;BME280;11820;48.738;9.092;2023-02-17T13:33:56;97067.84;;;13.01;nan
23303;BME280;11820;48.738;9.092;2023-02-17T13:38:57;97058.03;;;12.97;nan
23303;BME280;11820;48.738;9.092;2023-02-17T13:41:32;97049.34;;;13.10;nan
23303;BME280;11820;48.738;9.092;2023-02-17T13:43:58;97060.50;;;13.38;nan
23303;BME280;11820;48.738;9.092;2023-02-17T13:46:25;97049.63;;;13.56;nan
23303;BME280;11820;48.738;9.092;2023-02-17T13:49:03;97059.94;;;13.83;nan
23303;BME280;11820;48.738;9.092;2023-02-17T13:51:30;97052.06;;;13.64;nan
23303;BME280;11820;48.738;9.092;2023-02-17T13:53:56;97053.72;;;13.78;nan
23303;BME280;11820;48.738;9.092;2023-02-17T13:56:29;97055.84;;;13.27;nan
23303;BME280;11820;48.738;9.092;2023-02-17T13:59:06;97047.94;;;13.42;nan
23303;BME280;11820;48.738;9.092;2023-02-17T14:01:35;97043.69;;;13.28;nan
23303;BME280;11820;48.738;9.092;2023-02-17T14:04:01;97041.31;;;13.39;nan
23303;BME280;11820;48.738;9.092;2023-02-17T14:06:31;97030.47;;;13.57;nan
23303;BME280;11820;48.738;9.092;2023-02-17T14:08:58;97028.16;;;13.81;nan
23303;BME280;11820;48.738;9.092;2023-02-17T14:11:25;97035.31;;;14.20;nan
23303;BME280;11820;48.738;9.092;2023-02-17T14:13:53;97025.75;;;14.85;nan
23303;BME280;11820;48.738;9.092;2023-02-17T14:16:35;97034.31;;;15.57;nan
23303;BME280;11820;48.738;9.092;2023-02-17T14:19:08;97024.34;;;15.98;nan
23303;BME280;11820;48.738;9.092;2023-02-17T14:21:35;97017.25;;;15.54;nan
23303;BME280;11820;48.738;9.092;2023-02-17T14:24:01;97020.34;;;15.82;nan
23303;BME280;11820;48.738;9.092;2023-02-17T14:29:04;97021.91;;;15.26;nan
23303;BME280;11820;48.738;9.092;2023-02-17T14:31:45;97019.56;;;14.99;nan
23303;BME280;11820;48.738;9.092;2023-02-17T14:34:27;97038.97;;;14.70;nan
23303;BME280;11820;48.738;9.092;2023-02-17T14:36:54;97023.94;;;14.47;nan
23303;BME280;11820;48.738;9.092;2023-02-17T14:39:20;97031.53;;;14.22;nan
23303;BME280;11820;48.738;9.092;2023-02-17T14:41:45;97054.44;;;14.12;nan
23303;BME280;11820;48.738;9.092;2023-02-17T14:44:10;97039.72;;;13.72;nan
23303;BME280;11820;48.738;9.092;2023-02-17T14:46:36;97035.94;;;13.81;nan
23303;BME280;11820;48.738;9.092;2023-02-17T14:49:02;97045.41;;;13.48;nan
23303;BME280;11820;48.738;9.092;2023-02-17T14:51:34;97046.44;;;13.54;nan
23303;BME280;11820;48.738;9.092;2023-02-17T14:54:11;97030.91;;;13.73;nan
23303;BME280;11820;48.738;9.092;2023-02-17T14:56:42;97040.53;;;13.79;nan
23303;BME280;11820;48.738;9.092;2023-02-17T14:59:09;97038.25;;;14.10;nan
23303;BME280;11820;48.738;9.092;2023-02-17T15:01:34;97039.25;;;13.62;nan
23303;BME280;11820;48.738;9.092;2023-02-17T15:04:00;97038.50;;;13.34;nan
23303;BME280;11820;48.738;9.092;2023-02-17T15:06:37;97057.03;;;13.25;nan